Main page
METAR-TAF:

METAR-TAF

Airports :

Beatrice Municipal Airport

Beatrice, Nebraska, United States

latitude: 40-18N, longitude: 096-45W, elevation: 1322 ft

Current weather observation

The report was made 12 minutes ago, at 01:35 UTC
Wind 10 mph from the South
Temperature 70°F
Humidity 64%
Pressure 29.73 in. Hg
Visibility: 10 miles
Clear sky

METAR: KBIE 070135Z AUTO 17009KT 10SM CLR 21/14 A2973 RMK AO2 T02070141

Time: 20:47 (01:47 UTC)


TAF: missing

Weather observations and forecasts of more than 4000 airports (METAR and TAF reports).

The available stations are represented by yellow and red dots on the map.

Hover mouse over dot to see the name of the station.

Then click to see weather observations and forecasts.

To change the map : click on the green buttons with a black cross to zoom in, on the green button with a dash to zoom out, or on the green arrows for adjacent maps.


METAR-TAF: